Time;durP1;ratioP1;P1;durP2;ratioP2;P2;SDS_P1;SDS_P2;PMS_P1;PMS_P2;Temp;Humidity;BMP_temperature;BMP_pressure;BME280_temperature;BME280_humidity;BME280_pressure;Samples;Min_cycle;Max_cycle;Signal;HPM_P1;HPM_P2
2022/01/29 00:00:20;;;;;;;9.63;8.02;;;;;;;0.03;100.00;97352.78;5072895;28;24438;-74
2022/01/29 00:02:47;;;;;;;11.60;7.97;;;;;;;0.02;100.00;97349.38;5073163;28;24485;-73
2022/01/29 00:05:13;;;;;;;12.48;7.43;;;;;;;-0.05;100.00;97340.03;5073004;28;24431;-73
2022/01/29 00:07:41;;;;;;;10.35;7.80;;;;;;;0.00;100.00;97333.28;5072427;28;24859;-73
2022/01/29 00:10:09;;;;;;;9.85;7.50;;;;;;;-0.04;100.00;97339.16;5072774;28;24435;-73
2022/01/29 00:12:35;;;;;;;10.60;8.07;;;;;;;-0.05;100.00;97325.59;5072951;28;24434;-73
2022/01/29 00:15:02;;;;;;;12.45;7.65;;;;;;;-0.05;100.00;97327.28;5081302;28;24454;-73
2022/01/29 00:17:30;;;;;;;8.73;7.65;;;;;;;-0.07;100.00;97322.19;5072331;28;24427;-73
2022/01/29 00:19:57;;;;;;;11.35;7.85;;;;;;;-0.01;100.00;97317.09;5071931;28;24466;-73
2022/01/29 00:22:24;;;;;;;9.48;7.88;;;;;;;-0.08;100.00;97317.09;5073002;28;24442;-73
2022/01/29 00:24:51;;;;;;;12.82;9.15;;;;;;;-0.10;100.00;97313.69;5072785;28;24434;-74
2022/01/29 00:27:20;;;;;;;12.52;8.40;;;;;;;-0.08;100.00;97317.94;5072362;28;24442;-73
2022/01/29 00:29:46;;;;;;;10.88;8.70;;;;;;;-0.11;100.00;97310.31;5071771;28;24500;-73
2022/01/29 00:32:13;;;;;;;12.57;7.47;;;;;;;-0.03;100.00;97307.78;5056274;28;24427;-73
2022/01/29 00:34:42;;;;;;;13.93;8.25;;;;;;;-0.02;100.00;97314.56;5085234;28;25230;-74
2022/01/29 00:37:09;;;;;;;13.55;8.20;;;;;;;-0.03;100.00;97302.69;5072513;28;24435;-74
2022/01/29 00:39:36;;;;;;;10.00;7.57;;;;;;;-0.02;100.00;97297.59;5072350;28;25026;-74
2022/01/29 00:42:03;;;;;;;11.52;8.32;;;;;;;-0.03;100.00;97302.69;5072263;28;24438;-73
2022/01/29 00:44:29;;;;;;;9.23;7.90;;;;;;;0.02;100.00;97295.06;5072124;28;24434;-73
2022/01/29 00:46:56;;;;;;;10.05;7.88;;;;;;;0.02;100.00;97290.81;5072013;28;24441;-74
2022/01/29 00:49:22;;;;;;;9.82;8.13;;;;;;;0.00;100.00;97284.88;5072122;28;24430;-74
2022/01/29 00:51:50;;;;;;;12.10;8.50;;;;;;;0.03;100.00;97272.13;5072426;28;24435;-73
2022/01/29 00:54:16;;;;;;;12.50;7.90;;;;;;;-0.14;100.00;97271.25;5072023;28;24493;-73
2022/01/29 00:56:43;;;;;;;9.43;8.20;;;;;;;-0.05;100.00;97272.09;5072113;28;24442;-73
2022/01/29 00:59:09;;;;;;;11.35;8.95;;;;;;;-0.12;100.00;97265.28;5071933;28;24466;-74
2022/01/29 01:01:36;;;;;;;14.85;9.02;;;;;;;-0.15;100.00;97265.31;5077975;28;24438;-74
2022/01/29 01:04:02;;;;;;;9.77;8.48;;;;;;;-0.16;100.00;97265.28;5072015;28;24435;-74
2022/01/29 01:06:29;;;;;;;10.55;8.48;;;;;;;-0.15;100.00;97277.16;5071478;28;24489;-74
2022/01/29 01:08:57;;;;;;;14.23;8.85;;;;;;;-0.22;100.00;97283.06;5071192;28;24439;-74
2022/01/29 01:11:23;;;;;;;12.23;9.15;;;;;;;-0.20;100.00;97289.03;5071678;28;24431;-74
2022/01/29 01:13:50;;;;;;;11.68;8.55;;;;;;;-0.16;100.00;97294.13;5087253;28;24993;-74
2022/01/29 01:16:16;;;;;;;12.52;8.70;;;;;;;-0.14;100.00;97294.16;5084963;28;24441;-74
2022/01/29 01:18:43;;;;;;;12.70;8.98;;;;;;;-0.16;100.00;97303.47;5071750;28;24450;-74
2022/01/29 01:21:09;;;;;;;12.05;8.27;;;;;;;-0.20;100.00;97309.41;5071632;28;24830;-74
2022/01/29 01:23:35;;;;;;;13.30;9.20;;;;;;;-0.17;100.00;97299.25;5071944;28;24466;-74
2022/01/29 01:26:04;;;;;;;9.45;8.10;;;;;;;-0.01;100.00;97267.88;5071269;28;24442;-74
2022/01/29 01:28:31;;;;;;;10.97;8.17;;;;;;;0.08;100.00;97267.91;5071421;28;24429;-74
2022/01/29 01:30:57;;;;;;;11.93;9.43;;;;;;;-0.06;100.00;97256.81;5071280;28;24442;-74
2022/01/29 01:33:24;;;;;;;11.30;9.07;;;;;;;-0.10;100.00;97255.13;5071733;28;24431;-73
2022/01/29 01:35:54;;;;;;;11.60;8.85;;;;;;;-0.11;100.00;97263.59;5071486;28;24446;-73
2022/01/29 01:38:24;;;;;;;11.15;8.32;;;;;;;-0.10;100.00;97275.50;5071029;28;24442;-73
2022/01/29 01:40:54;;;;;;;12.93;8.80;;;;;;;-0.06;100.00;97277.19;5056741;28;25007;-73
2022/01/29 01:43:22;;;;;;;9.70;8.10;;;;;;;-0.12;100.00;97282.25;5081886;28;24537;-73
2022/01/29 01:45:49;;;;;;;12.23;8.67;;;;;;;-0.14;100.00;97278.88;5071175;28;24434;-74
2022/01/29 01:48:16;;;;;;;8.45;7.63;;;;;;;0.01;100.00;97271.28;5071186;28;24438;-74
2022/01/29 01:50:42;;;;;;;9.93;7.38;;;;;;;0.06;100.00;97277.22;5070647;28;24435;-74
2022/01/29 01:53:10;;;;;;;12.27;8.20;;;;;;;0.10;100.00;97273.84;5071119;28;24431;-73
2022/01/29 01:55:37;;;;;;;10.88;8.27;;;;;;;0.17;100.00;97270.47;5070940;28;24446;-74
2022/01/29 01:58:04;;;;;;;11.65;7.93;;;;;;;0.20;100.00;97252.63;5070837;28;25336;-74
2022/01/29 02:00:32;;;;;;;8.98;7.75;;;;;;;0.22;100.00;97250.94;5070468;28;24465;-74
2022/01/29 02:02:58;;;;;;;10.43;8.35;;;;;;;0.22;100.00;97250.06;5070867;28;24433;-74
2022/01/29 02:05:25;;;;;;;11.38;7.82;;;;;;;0.20;100.00;97249.25;5070869;28;24438;-74
2022/01/29 02:07:53;;;;;;;10.07;8.30;;;;;;;0.12;100.00;97253.47;5070349;28;24434;-74
2022/01/29 02:10:20;;;;;;;12.05;8.32;;;;;;;-0.01;100.00;97255.97;5070575;28;24439;-74
2022/01/29 02:12:48;;;;;;;13.02;8.23;;;;;;;0.10;100.00;97245.81;5070489;28;24435;-74
2022/01/29 02:15:16;;;;;;;11.07;8.40;;;;;;;0.14;100.00;97244.97;5070513;28;24840;-74
2022/01/29 02:17:45;;;;;;;12.82;8.40;;;;;;;0.16;100.00;97237.34;5070284;28;25046;-74
2022/01/29 02:20:13;;;;;;;11.07;7.47;;;;;;;0.16;100.00;97229.72;5069655;28;24459;-74
2022/01/29 02:22:42;;;;;;;10.27;8.48;;;;;;;0.18;100.00;97230.53;5069554;28;24431;-74
2022/01/29 02:25:35;;;;;;;9.30;7.95;;;;;;;0.22;100.00;97222.03;5070431;28;24442;-74
2022/01/29 02:28:04;;;;;;;9.10;7.68;;;;;;;0.12;100.00;97223.75;5070259;28;24431;-74
2022/01/29 02:30:33;;;;;;;10.07;8.32;;;;;;;-0.13;100.00;97225.41;5070141;28;24972;-74
2022/01/29 02:33:00;;;;;;;15.48;7.88;;;;;;;-0.25;100.00;97228.75;5070406;28;24831;-74
2022/01/29 02:35:27;;;;;;;11.60;8.50;;;;;;;-0.35;100.00;97214.28;5070119;28;24500;-74
2022/01/29 02:37:56;;;;;;;16.40;8.40;;;;;;;-0.37;100.00;97199.84;5070373;28;24537;-74
2022/01/29 02:40:23;;;;;;;9.30;7.57;;;;;;;-0.50;100.00;97201.53;5070083;28;24622;-74
2022/01/29 02:42:51;;;;;;;10.45;7.47;;;;;;;-0.45;100.00;97196.44;5069571;28;24713;-74
2022/01/29 02:45:17;;;;;;;8.73;7.78;;;;;;;-0.42;100.00;97199.00;5070233;28;25008;-73
2022/01/29 02:47:44;;;;;;;8.45;7.00;;;;;;;-0.40;100.00;97190.53;5069696;28;24796;-74
2022/01/29 02:50:10;;;;;;;9.77;7.82;;;;;;;-0.38;100.00;97178.66;5069938;28;24450;-73
2022/01/29 02:52:37;;;;;;;9.13;6.78;;;;;;;-0.27;100.00;97174.44;5070195;28;24477;-73
2022/01/29 02:55:06;;;;;;;9.90;7.00;;;;;;;-0.20;100.00;97165.13;5069978;28;24457;-74
2022/01/29 02:57:33;;;;;;;9.77;6.97;;;;;;;-0.22;100.00;97165.94;5082174;28;24435;-74
2022/01/29 03:00:00;;;;;;;7.78;6.47;;;;;;;-0.16;100.00;97164.28;5068426;28;24462;-74
2022/01/29 03:02:27;;;;;;;11.55;6.72;;;;;;;-0.21;100.00;97157.50;5069555;28;24442;-73
2022/01/29 03:04:54;;;;;;;8.98;7.03;;;;;;;-0.17;100.00;97147.31;5070261;28;24439;-74
2022/01/29 03:07:20;;;;;;;8.80;6.73;;;;;;;-0.16;100.00;97145.59;5069934;28;24431;-73
2022/01/29 03:09:47;;;;;;;7.77;6.30;;;;;;;-0.08;100.00;97137.09;5076599;28;24437;-74
2022/01/29 03:12:15;;;;;;;8.27;6.07;;;;;;;-0.03;100.00;97137.13;5069880;28;24442;-73
2022/01/29 03:14:41;;;;;;;10.00;6.65;;;;;;;-0.06;100.00;97126.94;5069290;28;24437;-74
2022/01/29 03:17:08;;;;;;;7.22;6.43;;;;;;;-0.13;100.00;97118.44;5069328;28;24975;-73
2022/01/29 03:19:34;;;;;;;7.88;6.22;;;;;;;-0.18;100.00;97117.59;5070003;28;24470;-74
2022/01/29 03:22:00;;;;;;;7.38;6.30;;;;;;;-0.31;100.00;97121.81;5069845;28;24815;-74
2022/01/29 03:24:27;;;;;;;7.28;6.20;;;;;;;-0.32;100.00;97119.28;5069314;28;24435;-73
2022/01/29 03:26:53;;;;;;;8.63;6.43;;;;;;;-0.30;100.00;97118.44;5069506;28;24481;-73
2022/01/29 03:29:21;;;;;;;7.82;5.70;;;;;;;-0.30;100.00;97125.19;5081847;28;24482;-73
2022/01/29 03:31:47;;;;;;;8.20;6.05;;;;;;;-0.30;100.00;97125.19;5069980;28;24443;-73
2022/01/29 03:34:14;;;;;;;7.85;5.70;;;;;;;-0.22;100.00;97123.53;5073444;28;24493;-73
2022/01/29 03:36:40;;;;;;;6.88;5.40;;;;;;;-0.16;100.00;97115.03;5072857;28;24438;-73
2022/01/29 03:39:07;;;;;;;9.90;5.55;;;;;;;-0.14;100.00;97115.91;5073777;28;24462;-73
2022/01/29 03:41:33;;;;;;;7.47;5.40;;;;;;;-0.10;100.00;97125.25;5073712;28;24800;-73
2022/01/29 03:44:04;;;;;;;8.52;5.30;;;;;;;-0.04;100.00;97113.38;5073139;28;24435;-73
2022/01/29 03:46:33;;;;;;;7.47;5.43;;;;;;;-0.10;100.00;97113.34;5074619;28;24435;-73
2022/01/29 03:48:59;;;;;;;8.50;5.18;;;;;;;-0.12;100.00;97117.59;5073514;28;24526;-73
2022/01/29 03:51:26;;;;;;;8.63;5.13;;;;;;;-0.09;100.00;97116.75;5073533;28;24493;-73
2022/01/29 03:53:53;;;;;;;8.90;4.97;;;;;;;-0.16;100.00;97113.34;5073686;28;24478;-73
2022/01/29 03:56:19;;;;;;;12.85;5.50;;;;;;;-0.09;100.00;97117.59;5072268;28;24438;-73
2022/01/29 03:58:46;;;;;;;7.40;4.90;;;;;;;-0.10;100.00;97118.44;5072818;28;24525;-74
2022/01/29 04:01:12;;;;;;;7.22;4.43;;;;;;;-0.07;100.00;97109.97;5073371;28;24465;-73
2022/01/29 04:03:40;;;;;;;7.30;4.57;;;;;;;0.04;100.00;97108.28;5076571;28;24516;-74
2022/01/29 04:06:06;;;;;;;6.07;4.13;;;;;;;0.07;100.00;97109.94;5076228;28;24438;-74
2022/01/29 04:08:40;;;;;;;6.05;4.47;;;;;;;0.09;100.00;97096.38;5073048;28;24441;-73
2022/01/29 04:11:06;;;;;;;7.10;4.43;;;;;;;0.10;100.00;97100.59;5073034;28;24496;-74
2022/01/29 04:13:32;;;;;;;6.32;3.83;;;;;;;0.11;100.00;97099.78;5072845;28;24442;-74
2022/01/29 04:15:59;;;;;;;5.88;4.40;;;;;;;0.16;100.00;97100.63;5080610;28;24435;-73
2022/01/29 04:18:25;;;;;;;6.57;4.38;;;;;;;0.21;100.00;97103.16;5073039;28;24832;-73
2022/01/29 04:20:53;;;;;;;6.00;4.05;;;;;;;0.20;100.00;97101.47;5072780;28;24451;-73
2022/01/29 04:23:19;;;;;;;8.60;4.30;;;;;;;0.18;100.00;97105.69;5073157;28;24419;-73
2022/01/29 04:25:46;;;;;;;5.03;4.05;;;;;;;0.06;100.00;97098.91;5072819;28;24445;-74
2022/01/29 04:28:14;;;;;;;7.27;4.33;;;;;;;0.11;100.00;97102.34;5072805;28;24442;-74
2022/01/29 04:30:45;;;;;;;4.25;3.65;;;;;;;0.14;100.00;97099.75;5075122;28;24541;-73
2022/01/29 04:33:28;;;;;;;5.75;3.97;;;;;;;0.08;100.00;97091.28;5072653;28;24486;-73
2022/01/29 04:35:57;;;;;;;4.55;4.07;;;;;;;0.08;100.00;97098.94;5072925;28;24429;-74
2022/01/29 04:38:24;;;;;;;4.63;3.17;;;;;;;0.03;100.00;97106.56;5073061;28;24442;-73
2022/01/29 04:40:50;;;;;;;6.90;3.72;;;;;;;-0.01;100.00;97102.31;5074386;28;24515;-73
2022/01/29 04:43:17;;;;;;;8.00;3.88;;;;;;;0.01;100.00;97097.25;5072171;28;24441;-73
2022/01/29 04:45:44;;;;;;;4.35;3.25;;;;;;;0.04;100.00;97093.00;5072451;28;24836;-73
2022/01/29 04:48:10;;;;;;;5.10;3.63;;;;;;;0.03;100.00;97083.63;5072098;28;24438;-73
2022/01/29 04:50:38;;;;;;;4.85;3.00;;;;;;;-0.01;100.00;97077.69;5071238;28;24438;-74
2022/01/29 04:53:05;;;;;;;5.72;3.13;;;;;;;0.00;100.00;97076.00;5071960;28;24435;-73
2022/01/29 04:55:32;;;;;;;10.07;3.30;;;;;;;-0.01;100.00;97075.13;5058277;28;24438;-73
2022/01/29 04:57:59;;;;;;;6.97;3.88;;;;;;;-0.06;100.00;97073.47;5072499;28;24438;-73
2022/01/29 05:00:25;;;;;;;4.10;3.38;;;;;;;-0.06;100.00;97074.31;5071752;28;24470;-74
2022/01/29 05:02:54;;;;;;;5.03;3.13;;;;;;;-0.05;100.00;97078.53;5071745;28;24844;-74
2022/01/29 05:05:21;;;;;;;7.45;3.88;;;;;;;0.01;100.00;97064.13;5072202;28;24836;-73
2022/01/29 05:07:48;;;;;;;4.10;3.70;;;;;;;0.07;100.00;97064.09;5084523;28;24569;-72
2022/01/29 05:10:16;;;;;;;4.78;3.60;;;;;;;0.04;100.00;97069.19;5072052;28;24438;-73
2022/01/29 05:12:48;;;;;;;5.20;3.63;;;;;;;0.01;100.00;97062.44;5071912;28;24473;-73
2022/01/29 05:15:17;;;;;;;4.10;3.17;;;;;;;-0.08;100.00;97080.25;5074626;28;24443;-73
2022/01/29 05:28:40;;;;;;;5.25;3.05;;;;;;;0.02;100.00;97121.84;5071303;28;24442;-73
2022/01/29 05:31:06;;;;;;;6.03;3.45;;;;;;;0.10;100.00;97115.91;5071296;28;24521;-75
2022/01/29 05:33:33;;;;;;;5.35;3.38;;;;;;;0.83;100.00;97109.00;5071695;28;24824;-73
2022/01/29 05:35:59;;;;;;;5.00;3.35;;;;;;;0.61;100.00;97115.84;5071775;28;24411;-75
2022/01/29 05:38:27;;;;;;;3.83;3.28;;;;;;;0.29;100.00;97114.19;5072019;28;24418;-74
2022/01/29 05:40:53;;;;;;;4.20;3.00;;;;;;;0.28;100.00;97119.28;5072368;28;24515;-73
2022/01/29 05:43:21;;;;;;;3.85;3.20;;;;;;;0.51;100.00;97114.16;5084656;28;24438;-73
2022/01/29 05:45:48;;;;;;;4.75;3.55;;;;;;;0.50;100.00;97104.81;5071413;28;24434;-73
2022/01/29 05:48:14;;;;;;;3.97;3.15;;;;;;;0.33;100.00;97098.03;5071885;28;24828;-74
2022/01/29 05:50:41;;;;;;;6.37;3.50;;;;;;;0.25;100.00;97104.84;5071546;28;24462;-75
2022/01/29 05:53:07;;;;;;;5.38;3.13;;;;;;;0.23;100.00;97111.66;5071277;28;25002;-73
2022/01/29 05:55:34;;;;;;;7.50;3.70;;;;;;;0.31;100.00;97109.94;5071238;28;25364;-74
2022/01/29 05:58:00;;;;;;;5.72;3.08;;;;;;;0.17;100.00;97114.19;5071767;28;24975;-73
2022/01/29 06:00:28;;;;;;;6.50;3.20;;;;;;;0.10;100.00;97110.81;5068044;28;24455;-73
2022/01/29 06:03:04;;;;;;;4.05;2.90;;;;;;;0.17;100.00;97104.00;5070448;28;24832;-73
2022/01/29 06:05:31;;;;;;;9.88;3.40;;;;;;;0.47;100.00;97108.22;5071138;28;24431;-74
2022/01/29 06:07:58;;;;;;;4.20;3.00;;;;;;;0.62;100.00;97102.25;5070446;28;24435;-74
2022/01/29 06:10:25;;;;;;;5.20;3.05;;;;;;;0.30;100.00;97097.19;5071366;28;24438;-74
2022/01/29 06:13:01;;;;;;;4.07;3.35;;;;;;;0.19;100.00;97098.06;5070923;28;24492;-74
2022/01/29 06:15:32;;;;;;;7.57;3.50;;;;;;;0.18;100.00;97100.59;5070582;28;24438;-74
2022/01/29 06:17:58;;;;;;;4.18;3.20;;;;;;;0.33;100.00;97113.31;5062872;28;25000;-74
2022/01/29 06:20:25;;;;;;;5.93;3.97;;;;;;;0.18;100.00;97100.59;5070712;28;24999;-74
2022/01/29 06:22:52;;;;;;;4.18;3.35;;;;;;;0.21;100.00;97103.16;5072607;28;24438;-72
2022/01/29 06:25:19;;;;;;;6.45;3.75;;;;;;;0.14;100.00;97092.13;5071034;28;24437;-74
2022/01/29 06:27:45;;;;;;;4.80;3.35;;;;;;;0.02;100.00;97088.75;5070769;28;24431;-73
2022/01/29 06:30:13;;;;;;;5.65;3.75;;;;;;;0.05;100.00;97099.78;5070501;28;24426;-73
2022/01/29 06:32:41;;;;;;;9.13;4.05;;;;;;;-0.10;100.00;97104.88;5070553;28;24805;-74
2022/01/29 06:35:08;;;;;;;5.47;3.53;;;;;;;-0.10;100.00;97103.16;5050498;28;24423;-73
2022/01/29 06:37:35;;;;;;;7.55;3.78;;;;;;;-0.10;100.00;97103.16;5057837;28;25077;-73
2022/01/29 06:40:01;;;;;;;4.70;2.92;;;;;;;-0.02;100.00;97092.97;5070182;28;24485;-74
2022/01/29 06:42:28;;;;;;;3.45;2.90;;;;;;;0.01;100.00;97095.53;5070914;28;24415;-74
2022/01/29 06:44:54;;;;;;;6.65;5.90;;;;;;;-0.02;100.00;97101.47;5069852;28;24972;-74
2022/01/29 06:47:21;;;;;;;7.25;5.45;;;;;;;0.07;100.00;97107.41;5069550;28;24431;-73
2022/01/29 06:49:48;;;;;;;11.33;9.10;;;;;;;0.10;100.00;97110.81;5070028;28;24801;-73
2022/01/29 06:52:15;;;;;;;19.88;7.13;;;;;;;0.16;100.00;97117.59;5070126;28;24979;-73
2022/01/29 06:54:42;;;;;;;9.93;7.90;;;;;;;0.23;100.00;97122.69;5069282;28;24458;-73
2022/01/29 06:57:08;;;;;;;7.05;6.03;;;;;;;0.24;100.00;97119.28;5068262;28;24461;-74
2022/01/29 06:59:34;;;;;;;5.07;4.18;;;;;;;0.29;100.00;97121.81;5069990;28;24553;-74
2022/01/29 07:02:01;;;;;;;5.22;3.65;;;;;;;0.24;100.00;97118.44;5070021;28;24454;-74
2022/01/29 07:04:27;;;;;;;5.20;3.67;;;;;;;0.14;100.00;97120.13;5070390;28;24503;-74
2022/01/29 07:06:55;;;;;;;4.57;3.13;;;;;;;0.07;100.00;97126.06;5068897;28;24442;-74
2022/01/29 07:09:22;;;;;;;10.82;7.50;;;;;;;0.21;100.00;97121.84;5066476;28;24442;-74
2022/01/29 07:11:54;;;;;;;9.57;4.80;;;;;;;0.24;100.00;97126.94;5069083;28;24438;-74
2022/01/29 07:14:21;;;;;;;29.58;19.63;;;;;;;0.35;100.00;97126.94;5069330;28;24496;-74
2022/01/29 07:16:47;;;;;;;41.28;29.27;;;;;;;0.35;100.00;97129.47;5069328;28;24987;-74
2022/01/29 07:19:14;;;;;;;17.48;13.18;;;;;;;0.39;100.00;97128.63;5069078;28;24800;-73
2022/01/29 07:21:40;;;;;;;8.57;6.70;;;;;;;0.40;100.00;97122.66;5069577;28;24804;-74
2022/01/29 07:24:08;;;;;;;15.82;12.27;;;;;;;0.38;100.00;97115.91;5069837;28;24442;-74
2022/01/29 07:26:35;;;;;;;8.68;6.00;;;;;;;0.43;100.00;97116.72;5076899;28;24434;-74
2022/01/29 07:29:01;;;;;;;6.63;4.97;;;;;;;0.55;100.00;97110.75;5069704;28;24477;-74
2022/01/29 07:31:28;;;;;;;8.82;5.32;;;;;;;0.54;100.00;97116.72;5070296;28;24439;-77
2022/01/29 07:33:54;;;;;;;5.93;5.32;;;;;;;0.55;100.00;97114.16;5070354;28;24426;-74
2022/01/29 07:36:21;;;;;;;8.90;6.78;;;;;;;0.43;100.00;97111.63;5070023;28;24419;-74
2022/01/29 07:38:47;;;;;;;5.80;5.20;;;;;;;0.41;100.00;97110.78;5070295;28;24426;-74
2022/01/29 07:41:15;;;;;;;8.73;5.53;;;;;;;0.51;100.00;97116.72;5070114;28;24859;-74
2022/01/29 07:43:41;;;;;;;8.57;4.82;;;;;;;0.51;100.00;97102.25;5070270;28;24418;-74
2022/01/29 07:46:08;;;;;;;4.88;4.10;;;;;;;0.56;100.00;97100.56;5069546;28;24425;-74
2022/01/29 07:48:34;;;;;;;5.20;3.90;;;;;;;0.58;100.00;97081.00;5070674;28;24497;-74
2022/01/29 07:51:00;;;;;;;4.70;3.28;;;;;;;0.80;100.00;97080.94;5075712;28;24434;-73
2022/01/29 07:53:27;;;;;;;5.93;3.05;;;;;;;0.80;100.00;97079.25;5075357;28;24495;-74
2022/01/29 07:55:53;;;;;;;4.63;3.55;;;;;;;0.84;100.00;97087.72;5074685;28;24497;-74
2022/01/29 07:58:22;;;;;;;4.15;3.20;;;;;;;0.85;100.00;97086.88;5074646;28;24431;-74
2022/01/29 08:00:49;;;;;;;3.85;3.15;;;;;;;0.84;100.00;97096.22;5075980;28;24462;-74
2022/01/29 08:03:15;;;;;;;4.40;3.37;;;;;;;0.85;100.00;97097.06;5068978;28;24488;-73
2022/01/29 08:05:41;;;;;;;4.00;3.40;;;;;;;0.86;100.00;97104.72;5067697;28;24535;-74
2022/01/29 08:08:08;;;;;;;3.72;3.30;;;;;;;0.87;100.00;97098.78;5068924;28;25007;-74
2022/01/29 08:10:35;;;;;;;4.15;3.28;;;;;;;0.90;100.00;97082.63;5069250;28;24438;-74
2022/01/29 08:13:01;;;;;;;7.72;3.40;;;;;;;0.91;100.00;97079.19;5069522;28;24423;-75
2022/01/29 08:15:29;;;;;;;4.80;3.25;;;;;;;0.90;100.00;97064.75;5068515;28;24995;-74
2022/01/29 08:17:55;;;;;;;5.70;3.38;;;;;;;0.92;100.00;97074.09;5069139;28;24497;-74
2022/01/29 08:20:22;;;;;;;5.00;3.45;;;;;;;0.95;100.00;97073.22;5071275;28;25065;-73
2022/01/29 08:22:48;;;;;;;4.82;3.58;;;;;;;0.98;100.00;97075.78;5056062;28;24808;-74
2022/01/29 08:25:15;;;;;;;6.18;3.38;;;;;;;1.07;100.00;97072.31;5071782;28;24438;-72
2022/01/29 08:27:42;;;;;;;6.40;3.50;;;;;;;1.08;100.00;97076.59;5075171;28;24471;-74
2022/01/29 08:30:09;;;;;;;7.05;3.63;;;;;;;1.01;100.00;97088.53;5077007;28;25003;-74
2022/01/29 08:32:41;;;;;;;5.13;3.60;;;;;;;1.12;100.00;97078.28;5080034;28;24441;-74
2022/01/29 08:35:09;;;;;;;3.63;3.22;;;;;;;1.14;100.00;97077.38;5078750;28;24492;-74
2022/01/29 08:37:36;;;;;;;6.93;3.55;;;;;;;1.17;100.00;97071.44;5068445;28;24435;-73
2022/01/29 08:40:04;;;;;;;5.40;3.70;;;;;;;1.21;100.00;97075.66;5078151;28;24447;-74
2022/01/29 08:42:31;;;;;;;3.72;3.17;;;;;;;1.20;100.00;97072.25;5078057;28;24457;-74
2022/01/29 08:44:57;;;;;;;3.50;3.20;;;;;;;1.26;100.00;97075.63;5077716;28;24483;-74
2022/01/29 08:47:24;;;;;;;5.20;3.10;;;;;;;1.35;100.00;97073.03;5078314;28;24494;-73
2022/01/29 08:49:52;;;;;;;4.28;3.28;;;;;;;1.49;100.00;97070.41;5079488;28;24976;-74
2022/01/29 08:52:18;;;;;;;8.25;4.30;;;;;;;1.49;100.00;97076.38;5078251;28;24426;-73
2022/01/29 08:54:45;;;;;;;4.30;3.58;;;;;;;1.42;100.00;97072.16;5076114;28;24991;-73
2022/01/29 08:57:11;;;;;;;4.88;3.90;;;;;;;1.52;100.00;97073.81;5077795;28;24438;-74
2022/01/29 08:59:38;;;;;;;4.15;3.42;;;;;;;1.53;100.00;97072.09;5078216;28;24430;-74
2022/01/29 09:02:04;;;;;;;5.50;3.77;;;;;;;1.58;100.00;97068.63;5078995;28;24451;-74
2022/01/29 09:04:31;;;;;;;4.93;3.67;;;;;;;1.64;100.00;97067.75;5074773;28;24445;-74
2022/01/29 09:06:59;;;;;;;5.32;3.78;;;;;;;1.66;100.00;97060.91;5075584;28;24431;-74
2022/01/29 09:09:26;;;;;;;3.93;3.40;;;;;;;1.67;100.00;97065.19;5074367;28;24535;-74
2022/01/29 09:11:54;;;;;;;4.95;3.70;;;;;;;1.78;100.00;97071.06;5081668;28;25072;-73
2022/01/29 09:14:21;;;;;;;4.25;3.65;;;;;;;1.75;100.00;97071.09;5075254;28;24983;-74
2022/01/29 09:16:48;;;;;;;4.47;4.00;;;;;;;1.83;100.00;97064.19;5074674;28;24438;-74
2022/01/29 09:19:15;;;;;;;4.75;3.42;;;;;;;1.94;100.00;97075.19;5078623;28;24443;-74
2022/01/29 09:21:41;;;;;;;6.43;4.10;;;;;;;2.04;100.00;97072.53;5100009;28;24445;-74
2022/01/29 09:24:09;;;;;;;6.22;4.80;;;;;;;2.07;100.00;97075.06;5099507;28;24429;-74
2022/01/29 09:26:35;;;;;;;4.78;4.05;;;;;;;2.14;100.00;97069.91;5101028;28;24423;-74
2022/01/29 09:29:02;;;;;;;4.13;3.40;;;;;;;2.30;100.00;97057.84;5103395;28;24414;-74
2022/01/29 09:31:28;;;;;;;5.95;4.25;;;;;;;2.42;100.00;97046.63;5101995;28;24429;-74
2022/01/29 09:33:55;;;;;;;3.80;3.45;;;;;;;2.56;100.00;97044.78;5102025;28;24822;-74
2022/01/29 09:36:22;;;;;;;4.15;3.72;;;;;;;2.64;100.00;97045.53;5101148;28;24422;-75
2022/01/29 09:38:49;;;;;;;7.13;4.53;;;;;;;2.66;100.00;97051.47;5101595;28;24442;-74
2022/01/29 09:41:18;;;;;;;5.90;4.85;;;;;;;2.71;100.00;97051.44;5101242;28;24453;-75
2022/01/29 09:43:46;;;;;;;6.50;4.57;;;;;;;2.69;100.00;97044.66;5101362;28;24425;-74
2022/01/29 09:49:35;;;;;;;5.00;4.13;;;;;;;2.80;100.00;97032.56;5102223;28;24422;-74
2022/01/29 09:52:02;;;;;;;3.58;3.28;;;;;;;2.95;100.00;97036.66;5101385;28;24425;-75
2022/01/29 09:54:29;;;;;;;4.30;3.70;;;;;;;2.86;100.00;97041.03;5101481;28;24959;-74
2022/01/29 09:56:57;;;;;;;5.43;3.93;;;;;;;2.91;100.00;97040.97;5101331;28;24548;-75
2022/01/29 09:59:23;;;;;;;5.57;3.90;;;;;;;2.95;100.00;97040.06;5098529;28;24433;-74
2022/01/29 10:01:50;;;;;;;3.53;3.22;;;;;;;2.86;100.00;97033.34;5100905;28;24438;-74
2022/01/29 10:07:38;;;;;;;4.35;3.67;;;;;;;2.89;100.00;97046.13;5101792;28;24386;-74
2022/01/29 10:10:18;;;;;;;4.38;3.20;;;;;;;2.83;100.00;97040.22;5099508;28;24430;-73
2022/01/29 10:12:46;;;;;;;4.73;3.30;;;;;;;2.78;100.00;97044.53;5097809;28;24878;-74
2022/01/29 10:15:13;;;;;;;7.05;4.25;;;;;;;2.78;100.00;97034.28;5099884;28;24772;-73
2022/01/29 10:17:42;;;;;;;5.22;4.20;;;;;;;2.69;100.00;97042.09;5100214;28;24426;-73
2022/01/29 10:23:30;;;;;;;4.78;4.05;;;;;;;2.76;100.00;97039.44;5100198;28;24389;-74
2022/01/29 10:25:58;;;;;;;4.22;3.83;;;;;;;2.80;100.00;97032.56;5099799;28;24418;-72
2022/01/29 10:28:27;;;;;;;7.70;4.53;;;;;;;2.76;100.00;97026.66;5099729;28;24966;-75
2022/01/29 10:34:17;;;;;;;4.80;3.55;;;;;;;2.82;100.00;97021.47;5100490;28;24401;-73
2022/01/29 10:40:18;;;;;;;5.97;3.70;;;;;;;2.77;100.00;97012.97;5099044;28;24451;-75
2022/01/29 10:42:45;;;;;;;3.50;3.17;;;;;;;2.81;100.00;97014.63;5098633;28;24473;-74
2022/01/29 10:45:12;;;;;;;4.95;3.72;;;;;;;2.81;100.00;97014.63;5098962;28;24444;-74
2022/01/29 10:51:10;;;;;;;5.72;2.95;;;;;;;2.85;100.00;97007.75;5100322;28;24433;-74
2022/01/29 10:53:36;;;;;;;7.15;5.10;;;;;;;2.85;100.00;97006.03;5097853;28;24447;-75
2022/01/29 10:56:04;;;;;;;101.93;45.90;;;;;;;2.77;100.00;96996.78;5097991;28;24418;-75
2022/01/29 10:58:31;;;;;;;15.85;7.82;;;;;;;2.82;100.00;97002.72;5098008;28;25150;-74
2022/01/29 11:04:21;;;;;;;5.82;3.22;;;;;;;2.90;100.00;97003.47;5097579;28;24535;-74
2022/01/29 11:06:51;;;;;;;3.60;2.72;;;;;;;2.96;100.00;96995.69;5096198;28;24421;-74
2022/01/29 11:09:19;;;;;;;7.78;4.35;;;;;;;3.02;100.00;96998.16;5096397;28;24971;-74
2022/01/29 11:15:07;;;;;;;8.15;4.60;;;;;;;3.15;100.00;96988.59;5097535;28;24390;-74
2022/01/29 11:17:34;;;;;;;10.93;4.65;;;;;;;3.24;100.00;96978.25;5096780;28;24430;-75
2022/01/29 11:23:24;;;;;;;4.53;2.77;;;;;;;3.39;100.00;96974.59;5095564;28;24398;-74
2022/01/29 11:25:55;;;;;;;5.13;2.80;;;;;;;3.36;100.00;96977.22;5096027;28;24788;-72
2022/01/29 11:28:23;;;;;;;4.22;2.10;;;;;;;3.30;100.00;96974.72;5095405;28;24446;-74
2022/01/29 11:31:21;;;;;;;2.65;2.05;;;;;;;3.36;100.00;96982.31;5095359;28;24433;-74
2022/01/29 11:37:10;;;;;;;2.63;1.90;;;;;;;3.48;100.00;96976.16;5093645;28;24409;-75
2022/01/29 11:39:38;;;;;;;5.60;3.30;;;;;;;3.44;100.00;96972.81;5093477;28;24442;-74
2022/01/29 11:42:28;;;;;;;3.60;2.30;;;;;;;3.50;100.00;96961.63;5093824;28;24867;-73
2022/01/29 11:44:55;;;;;;;4.65;2.65;;;;;;;3.52;100.00;96967.56;5093099;28;24471;-74
2022/01/29 11:47:48;;;;;;;4.30;2.30;;;;;;;3.57;100.00;96966.63;5091344;28;24418;-74
2022/01/29 11:50:47;;;;;;;2.20;1.63;;;;;;;3.64;100.00;96962.25;5091259;28;24429;-74
2022/01/29 11:56:37;;;;;;;2.20;1.23;;;;;;;3.78;100.00;96950.06;5094815;28;24971;-74
2022/01/29 12:02:39;;;;;;;2.30;1.40;;;;;;;3.97;100.00;96944.59;5094662;28;24433;-74
2022/01/29 12:05:07;;;;;;;1.50;1.03;;;;;;;3.95;100.00;96936.94;5095097;28;24505;-73
2022/01/29 12:07:37;;;;;;;1.80;1.10;;;;;;;3.86;100.00;96935.41;5094890;28;24475;-74
2022/01/29 12:13:27;;;;;;;1.40;1.13;;;;;;;3.88;100.00;96937.91;5094544;28;24510;-74
2022/01/29 12:15:53;;;;;;;1.30;0.90;;;;;;;3.89;100.00;96931.91;5094503;28;24425;-74
2022/01/29 12:18:32;;;;;;;1.45;0.88;;;;;;;3.90;100.00;96928.50;5095110;28;24423;-75
2022/01/29 12:20:59;;;;;;;2.17;0.90;;;;;;;3.93;100.00;96923.31;5096316;28;24426;-74
2022/01/29 12:23:26;;;;;;;1.30;1.00;;;;;;;4.05;100.00;96906.88;5096669;28;24843;-75
2022/01/29 12:25:55;;;;;;;3.65;0.80;;;;;;;3.97;100.00;96911.28;5096217;28;24449;-76